Time;durP1;ratioP1;P1;durP2;ratioP2;P2;SDS_P1;SDS_P2;PMS_P1;PMS_P2;Temp;Humidity;BMP_temperature;BMP_pressure;BME280_temperature;BME280_humidity;BME280_pressure;Samples;Min_cycle;Max_cycle;Signal;HPM_P1;HPM_P2
2021/07/25 00:02:01;;;;;;;17.60;15.88;;;;;;;22.24;67.49;100932.59;5023441;28;20032;-89
2021/07/25 00:04:29;;;;;;;17.90;15.98;;;;;;;22.23;67.52;100922.97;5038175;28;20029;-89
2021/07/25 00:06:54;;;;;;;18.75;16.38;;;;;;;22.22;66.12;100924.75;5038092;28;20467;-89
2021/07/25 00:09:19;;;;;;;18.17;16.30;;;;;;;22.22;66.66;100918.63;5021290;28;20032;-88
2021/07/25 00:11:45;;;;;;;17.75;16.05;;;;;;;22.24;66.57;100928.19;5037608;28;20514;-88
2021/07/25 00:14:10;;;;;;;18.88;16.88;;;;;;;22.21;67.10;100920.38;5037670;28;20196;-89
2021/07/25 00:16:36;;;;;;;21.00;16.80;;;;;;;22.23;66.13;100926.44;5037455;28;20115;-89
2021/07/25 00:19:01;;;;;;;19.25;17.33;;;;;;;22.22;66.33;100934.34;5037295;28;20387;-90
2021/07/25 00:21:27;;;;;;;20.38;17.65;;;;;;;22.18;65.39;100923.06;5020949;28;20055;-89
2021/07/25 00:23:55;;;;;;;20.00;18.00;;;;;;;22.16;66.97;100922.25;5020851;28;20032;-87
2021/07/25 00:26:25;;;;;;;19.23;17.20;;;;;;;22.20;67.62;100913.41;5037660;28;20028;-88
2021/07/25 00:28:51;;;;;;;18.63;16.67;;;;;;;22.20;67.13;100916.03;5022081;28;20368;-88
2021/07/25 00:31:16;;;;;;;18.90;16.95;;;;;;;22.20;67.25;100900.31;5054033;28;20032;-88
2021/07/25 00:33:43;;;;;;;23.40;17.35;;;;;;;22.21;68.02;100896.81;5021699;28;20029;-88
2021/07/25 00:36:09;;;;;;;18.15;16.33;;;;;;;22.24;69.32;100891.50;5055133;28;20028;-89
2021/07/25 00:38:35;;;;;;;19.02;17.00;;;;;;;22.24;68.89;100888.03;5054836;28;20083;-88
2021/07/25 00:41:15;;;;;;;18.05;16.25;;;;;;;22.22;67.95;100884.53;5038042;28;20049;-87
2021/07/25 00:43:43;;;;;;;18.00;16.20;;;;;;;22.23;67.92;100883.66;5054323;28;20108;-88
2021/07/25 00:46:10;;;;;;;17.98;16.25;;;;;;;22.21;67.51;100886.31;5054136;28;20556;-87
2021/07/25 00:48:36;;;;;;;17.73;15.57;;;;;;;22.22;67.57;100882.81;5053922;28;20036;-88
2021/07/25 00:51:03;;;;;;;18.48;16.30;;;;;;;22.24;68.24;100888.03;5037306;28;20823;-88
2021/07/25 00:53:29;;;;;;;17.80;16.00;;;;;;;22.23;67.95;100884.50;5035902;28;20029;-88
2021/07/25 00:55:55;;;;;;;17.40;15.70;;;;;;;22.23;66.79;100876.66;5053093;28;20039;-88
2021/07/25 00:58:21;;;;;;;18.05;16.15;;;;;;;22.24;67.72;100877.53;5069702;28;20025;-88
2021/07/25 01:00:47;;;;;;;19.00;16.35;;;;;;;22.24;67.29;100872.28;5037035;28;20039;-88
2021/07/25 01:03:15;;;;;;;18.60;16.70;;;;;;;22.25;67.99;100874.84;5053964;28;20028;-88
2021/07/25 01:05:47;;;;;;;19.38;16.17;;;;;;;22.24;66.70;100869.66;5053487;28;20033;-88
2021/07/25 01:08:27;;;;;;;19.55;17.38;;;;;;;22.26;67.12;100878.34;5053510;28;20020;-86
2021/07/25 01:10:53;;;;;;;19.30;16.25;;;;;;;22.25;66.94;100877.47;5054258;28;20029;-86
2021/07/25 01:13:24;;;;;;;18.30;16.15;;;;;;;22.28;68.09;100881.78;5036336;28;20025;-86
2021/07/25 01:15:51;;;;;;;17.92;16.13;;;;;;;22.26;66.66;100879.19;5052982;28;20035;-86
2021/07/25 01:18:16;;;;;;;17.80;16.00;;;;;;;22.27;68.14;100880.06;5052837;28;20025;-86
2021/07/25 01:20:41;;;;;;;17.85;16.08;;;;;;;22.29;68.30;100889.59;5019520;28;20036;-85
2021/07/25 01:23:07;;;;;;;18.75;16.80;;;;;;;22.25;67.69;100882.72;5053089;28;20438;-86
2021/07/25 01:25:34;;;;;;;18.58;16.67;;;;;;;22.26;66.91;100886.22;5019334;28;20090;-86
2021/07/25 01:28:25;;;;;;;19.70;17.70;;;;;;;22.25;66.27;100880.09;5019627;28;20147;-86
2021/07/25 01:30:54;;;;;;;19.77;17.58;;;;;;;22.27;67.41;100885.28;5053740;28;20068;-87
2021/07/25 01:33:25;;;;;;;19.52;17.25;;;;;;;22.27;68.40;100882.69;5052301;28;20056;-88
2021/07/25 01:35:52;;;;;;;21.92;17.80;;;;;;;22.25;67.09;100874.84;5053692;28;20150;-88
2021/07/25 01:38:17;;;;;;;20.45;18.38;;;;;;;22.26;66.34;100881.81;5052317;28;20029;-88
2021/07/25 01:41:00;;;;;;;20.20;18.13;;;;;;;22.26;66.69;100876.59;5035645;28;20384;-88
2021/07/25 01:43:26;;;;;;;19.55;17.65;;;;;;;22.28;67.77;100866.91;5053680;28;20027;-88
2021/07/25 01:45:51;;;;;;;20.35;18.30;;;;;;;22.27;65.82;100867.81;5035517;28;20040;-89
2021/07/25 01:48:17;;;;;;;20.08;18.08;;;;;;;22.28;68.25;100859.03;5019026;28;20360;-88
2021/07/25 01:50:42;;;;;;;20.13;18.13;;;;;;;22.27;67.30;100851.22;5035320;28;20116;-88
2021/07/25 01:53:07;;;;;;;20.05;18.05;;;;;;;22.30;68.25;100845.91;5018993;28;20029;-88
2021/07/25 01:55:32;;;;;;;20.73;18.60;;;;;;;22.28;67.44;100845.09;5018832;28;20115;-88
2021/07/25 01:57:58;;;;;;;20.48;18.42;;;;;;;22.29;68.44;100849.41;5019006;28;20025;-88
2021/07/25 02:00:23;;;;;;;20.40;18.30;;;;;;;22.29;68.68;100844.16;5019357;28;20075;-88
2021/07/25 02:02:48;;;;;;;21.02;18.92;;;;;;;22.29;67.85;100844.16;5019022;28;20057;-88
2021/07/25 02:05:14;;;;;;;22.58;20.17;;;;;;;22.26;67.35;100847.75;5020890;28;20025;-88
2021/07/25 02:07:39;;;;;;;21.50;19.40;;;;;;;22.27;67.91;100851.22;5039484;28;20033;-87
2021/07/25 02:10:05;;;;;;;22.30;19.95;;;;;;;22.27;67.15;100849.44;5022844;28;20025;-88
2021/07/25 02:12:30;;;;;;;24.30;20.98;;;;;;;22.27;67.48;100849.44;5022975;28;20529;-89
2021/07/25 02:14:56;;;;;;;23.55;20.10;;;;;;;22.28;68.22;100852.94;5039332;28;20479;-88
2021/07/25 02:17:21;;;;;;;21.80;19.50;;;;;;;22.26;67.39;100842.50;5022700;28;20060;-88
2021/07/25 02:19:47;;;;;;;22.77;20.50;;;;;;;22.28;67.83;100842.47;5039508;28;20057;-88
2021/07/25 02:22:12;;;;;;;27.40;20.45;;;;;;;22.28;67.28;100845.09;5039230;28;20468;-87
2021/07/25 02:24:40;;;;;;;24.27;20.88;;;;;;;22.25;67.08;100827.66;5022653;28;20140;-89
2021/07/25 02:27:05;;;;;;;24.30;21.75;;;;;;;22.25;66.96;100825.03;5039321;28;20036;-88
2021/07/25 02:29:31;;;;;;;23.52;20.63;;;;;;;22.28;67.42;100827.59;5022508;28;20392;-88
2021/07/25 02:31:56;;;;;;;22.17;19.80;;;;;;;22.28;67.69;100829.34;5038986;28;20033;-88
2021/07/25 02:34:21;;;;;;;21.77;19.52;;;;;;;22.28;66.77;100824.97;5038893;28;20044;-88
2021/07/25 02:36:47;;;;;;;23.13;20.73;;;;;;;22.28;66.84;100826.75;5039003;28;20450;-88
2021/07/25 02:39:12;;;;;;;23.55;21.05;;;;;;;22.27;65.75;100825.00;5022161;28;20087;-88
2021/07/25 02:41:38;;;;;;;23.23;20.92;;;;;;;22.28;65.92;100816.25;5022474;28;20060;-87
2021/07/25 02:44:05;;;;;;;23.15;20.48;;;;;;;22.28;66.55;100813.63;5038946;28;20025;-88
2021/07/25 02:46:30;;;;;;;23.77;21.27;;;;;;;22.26;66.38;100813.66;5038811;28;20461;-89
2021/07/25 02:48:55;;;;;;;23.10;20.67;;;;;;;22.28;67.10;100803.16;5038600;28;20025;-88
2021/07/25 02:51:21;;;;;;;23.55;21.15;;;;;;;22.28;66.50;100798.75;5038521;28;20029;-88
2021/07/25 02:53:46;;;;;;;23.77;20.98;;;;;;;22.26;66.09;100795.31;5022213;28;20029;-88
2021/07/25 02:56:12;;;;;;;25.38;22.70;;;;;;;22.28;66.80;100797.91;5038889;28;20051;-88
2021/07/25 02:58:37;;;;;;;23.45;20.95;;;;;;;22.27;66.87;100791.78;5055123;28;20070;-88
2021/07/25 03:01:13;;;;;;;24.77;22.00;;;;;;;22.25;66.23;100787.50;5022756;28;20457;-88
2021/07/25 03:03:39;;;;;;;26.70;23.95;;;;;;;22.26;66.46;100789.22;5039661;28;20170;-88
2021/07/25 03:06:05;;;;;;;25.73;22.98;;;;;;;22.28;65.93;100792.66;5055311;28;20017;-88
2021/07/25 03:08:30;;;;;;;26.33;23.58;;;;;;;22.26;66.45;100795.31;5038641;28;20379;-88
2021/07/25 03:10:56;;;;;;;24.88;22.27;;;;;;;22.26;66.39;100786.59;5054951;28;20116;-88
2021/07/25 03:13:21;;;;;;;24.75;22.17;;;;;;;22.27;66.97;100789.16;5021771;28;20032;-88
2021/07/25 03:15:46;;;;;;;26.90;24.17;;;;;;;22.27;66.17;100780.44;5020996;28;20143;-86
2021/07/25 03:18:12;;;;;;;25.35;22.75;;;;;;;22.28;66.77;100787.41;5037861;28;20036;-86
2021/07/25 03:20:37;;;;;;;27.45;24.55;;;;;;;22.27;66.24;100783.91;5021536;28;20479;-86
2021/07/25 03:23:03;;;;;;;27.10;24.23;;;;;;;22.27;65.52;100775.19;5038112;28;20368;-85
2021/07/25 03:25:28;;;;;;;28.20;25.17;;;;;;;22.27;65.56;100776.06;5037890;28;20036;-86
2021/07/25 03:27:53;;;;;;;27.13;24.23;;;;;;;22.27;66.13;100772.56;5037867;28;20040;-86
2021/07/25 03:30:19;;;;;;;29.98;26.75;;;;;;;22.27;66.09;100770.81;5054291;28;20079;-86
2021/07/25 03:32:44;;;;;;;27.00;24.17;;;;;;;22.29;66.21;100769.00;5037741;28;20060;-87
2021/07/25 03:35:12;;;;;;;27.00;24.10;;;;;;;22.28;65.83;100772.53;5054243;28;20040;-86
2021/07/25 03:37:41;;;;;;;29.00;26.00;;;;;;;22.30;65.81;100777.75;5037726;28;20091;-86
2021/07/25 03:40:08;;;;;;;28.73;25.10;;;;;;;22.29;66.01;100774.25;5054089;28;20476;-86
2021/07/25 03:42:34;;;;;;;28.70;25.73;;;;;;;22.29;65.15;100783.88;5037434;28;20467;-86
2021/07/25 03:44:59;;;;;;;29.27;26.15;;;;;;;22.30;65.20;100781.22;5053964;28;20044;-86
2021/07/25 03:47:24;;;;;;;28.00;25.13;;;;;;;22.29;65.08;100784.72;5054270;28;20056;-86
2021/07/25 03:49:50;;;;;;;28.67;25.65;;;;;;;22.31;65.04;100789.94;5020760;28;20386;-86
2021/07/25 03:52:15;;;;;;;30.45;26.02;;;;;;;22.32;64.97;100786.38;5037440;28;20068;-87
2021/07/25 03:54:43;;;;;;;29.83;26.50;;;;;;;22.32;64.60;100794.25;5020936;28;20122;-86
2021/07/25 03:57:10;;;;;;;30.08;26.92;;;;;;;22.30;65.11;100794.31;5021408;28;20472;-86
2021/07/25 03:59:39;;;;;;;29.75;26.70;;;;;;;22.31;65.31;100792.56;5053888;28;20032;-87
2021/07/25 04:02:05;;;;;;;30.30;26.20;;;;;;;22.32;65.06;100796.88;5037429;28;20116;-88
2021/07/25 04:04:32;;;;;;;28.15;25.23;;;;;;;22.33;64.92;100790.75;5037433;28;20436;-88
2021/07/25 04:06:57;;;;;;;28.20;25.30;;;;;;;22.33;64.88;100791.59;5037405;28;20067;-88
2021/07/25 04:09:23;;;;;;;28.33;25.25;;;;;;;22.34;64.89;100788.09;5053967;28;20053;-89
2021/07/25 04:11:53;;;;;;;27.80;24.90;;;;;;;22.34;64.93;100785.47;5042667;28;20076;-88
2021/07/25 04:14:18;;;;;;;27.58;24.77;;;;;;;22.37;64.96;100792.38;5046093;28;20096;-88
2021/07/25 04:16:44;;;;;;;26.30;23.48;;;;;;;22.36;64.67;100786.28;5062482;28;20067;-88
2021/07/25 04:19:09;;;;;;;25.80;23.10;;;;;;;22.36;64.51;100788.91;5046203;28;20387;-89
2021/07/25 04:21:34;;;;;;;26.30;23.63;;;;;;;22.37;64.69;100785.38;5022930;28;20112;-89
2021/07/25 04:24:00;;;;;;;25.42;22.80;;;;;;;22.37;65.20;100787.97;5038350;28;20037;-88
2021/07/25 04:26:25;;;;;;;25.63;22.77;;;;;;;22.37;64.10;100787.13;5022164;28;20025;-88
2021/07/25 04:28:51;;;;;;;24.63;22.08;;;;;;;22.38;64.77;100797.59;5021516;28;20539;-88
2021/07/25 04:31:17;;;;;;;23.90;21.52;;;;;;;22.38;64.89;100794.06;5020809;28;20131;-89
2021/07/25 04:33:44;;;;;;;24.00;21.52;;;;;;;22.38;64.37;100792.34;5020829;28;20503;-88
2021/07/25 04:36:13;;;;;;;23.55;21.02;;;;;;;22.37;64.99;100793.22;5021678;28;20120;-88
2021/07/25 04:38:39;;;;;;;22.90;20.70;;;;;;;22.37;65.38;100787.97;5038694;28;20025;-88
2021/07/25 04:41:09;;;;;;;22.55;20.25;;;;;;;22.39;65.26;100791.41;5054227;28;20051;-88
2021/07/25 04:43:36;;;;;;;22.92;20.52;;;;;;;22.39;64.37;100791.41;5037310;28;20395;-88
2021/07/25 04:46:07;;;;;;;21.38;19.25;;;;;;;22.41;64.16;100798.38;5054783;28;20443;-88
2021/07/25 04:48:54;;;;;;;22.08;19.88;;;;;;;22.41;64.37;100793.13;5055242;28;20371;-89
2021/07/25 04:51:22;;;;;;;22.45;20.23;;;;;;;22.41;64.60;100795.75;5054639;28;20021;-89
2021/07/25 04:53:50;;;;;;;22.55;20.25;;;;;;;22.42;64.54;100805.34;5055109;28;20060;-89
2021/07/25 04:56:18;;;;;;;22.10;19.90;;;;;;;22.42;64.14;100800.94;5054597;28;20120;-86
2021/07/25 04:59:18;;;;;;;23.50;21.10;;;;;;;22.43;64.07;100802.69;5036706;28;20079;-88
2021/07/25 05:01:47;;;;;;;22.65;20.35;;;;;;;22.44;63.80;100801.75;5042272;28;20039;-89
2021/07/25 05:04:12;;;;;;;21.80;19.60;;;;;;;22.46;64.22;100799.09;5053260;28;20025;-89
2021/07/25 05:06:38;;;;;;;22.83;20.52;;;;;;;22.45;63.59;100800.88;5053211;28;20483;-89
2021/07/25 05:09:05;;;;;;;21.38;19.27;;;;;;;22.46;63.48;100802.56;5020093;28;20029;-88
2021/07/25 05:11:39;;;;;;;21.48;19.38;;;;;;;22.46;63.41;100805.19;5036540;28;20029;-88
2021/07/25 05:14:16;;;;;;;21.95;19.50;;;;;;;22.50;64.12;100809.44;5052898;28;20029;-87
2021/07/25 05:16:45;;;;;;;22.05;19.75;;;;;;;22.53;63.73;100803.25;5052686;28;20497;-88
2021/07/25 05:19:37;;;;;;;22.65;20.35;;;;;;;22.53;63.72;100811.13;5052416;28;20463;-82
2021/07/25 05:22:05;;;;;;;22.98;20.60;;;;;;;22.54;63.66;100810.22;5052401;28;20031;-84
2021/07/25 05:24:43;;;;;;;23.30;20.55;;;;;;;22.56;63.71;100809.25;5052471;28;20166;-80
2021/07/25 05:27:31;;;;;;;21.98;19.63;;;;;;;22.61;65.56;100816.13;5052173;28;20391;-79
2021/07/25 05:29:58;;;;;;;21.08;18.98;;;;;;;22.68;66.45;100802.78;5051647;28;20453;-80
2021/07/25 05:32:23;;;;;;;19.92;17.98;;;;;;;22.73;66.22;100805.25;5019282;28;20058;-80
2021/07/25 05:34:49;;;;;;;20.58;18.58;;;;;;;22.80;65.79;100806.78;5052178;28;20025;-85
2021/07/25 05:37:14;;;;;;;19.15;17.13;;;;;;;22.86;65.80;100803.09;5019431;28;20033;-85
2021/07/25 05:39:39;;;;;;;22.20;20.08;;;;;;;22.91;66.83;100803.81;5018503;28;20120;-86
2021/07/25 05:42:05;;;;;;;22.05;19.92;;;;;;;22.94;66.71;100803.72;5019094;28;20475;-84
2021/07/25 05:44:31;;;;;;;25.33;22.67;;;;;;;22.96;67.11;100812.38;5035460;28;20056;-83
2021/07/25 05:46:58;;;;;;;31.27;27.88;;;;;;;22.96;65.75;100812.38;5052056;28;20471;-77
2021/07/25 05:49:24;;;;;;;52.78;45.45;;;;;;;22.82;59.96;100810.22;5035266;28;20490;-78
2021/07/25 05:51:49;;;;;;;53.50;46.33;;;;;;;22.72;61.15;100803.53;5035207;28;20029;-79
2021/07/25 05:54:15;;;;;;;58.45;49.17;;;;;;;22.67;62.60;100801.06;5035315;28;20036;-77
2021/07/25 05:56:40;;;;;;;63.95;53.22;;;;;;;22.64;61.19;100802.91;5035302;28;20442;-77
2021/07/25 05:59:10;;;;;;;66.03;54.80;;;;;;;22.60;62.18;100796.91;5035166;28;20039;-78
2021/07/25 06:01:35;;;;;;;62.13;51.58;;;;;;;22.67;61.37;100795.81;5035861;28;20024;-77
2021/07/25 06:04:01;;;;;;;66.63;53.25;;;;;;;22.95;59.80;100797.53;5051886;28;20533;-77
2021/07/25 06:06:26;;;;;;;67.72;54.92;;;;;;;22.86;60.69;100795.22;5035137;28;20056;-77
2021/07/25 06:08:51;;;;;;;68.30;57.08;;;;;;;22.97;60.74;100793.09;5018675;28;20027;-79
2021/07/25 06:11:22;;;;;;;68.68;55.00;;;;;;;22.90;61.56;100794.22;5018516;28;20083;-77
2021/07/25 06:13:48;;;;;;;65.65;53.88;;;;;;;22.84;62.12;100799.66;5051709;28;20028;-77
2021/07/25 06:16:13;;;;;;;66.50;54.45;;;;;;;23.00;61.44;100808.78;5051599;28;20031;-78
2021/07/25 06:18:39;;;;;;;63.35;52.78;;;;;;;23.31;58.78;100800.75;5035110;28;20541;-78
2021/07/25 06:21:04;;;;;;;59.90;51.42;;;;;;;23.70;59.03;100800.25;5018741;28;20029;-78
2021/07/25 06:23:29;;;;;;;64.88;54.03;;;;;;;24.05;58.27;100806.03;5018471;28;20109;-78
2021/07/25 06:25:55;;;;;;;56.47;47.47;;;;;;;23.94;56.42;100806.44;5051674;28;20395;-77
2021/07/25 06:28:20;;;;;;;57.25;49.38;;;;;;;23.65;58.77;100811.84;5035104;28;20033;-77
2021/07/25 06:30:45;;;;;;;53.97;46.67;;;;;;;23.35;58.60;100806.75;5035629;28;20451;-77
2021/07/25 06:33:11;;;;;;;54.80;46.88;;;;;;;23.13;60.53;100804.00;5051669;28;20104;-76
2021/07/25 06:35:41;;;;;;;54.92;47.45;;;;;;;23.00;60.22;100811.41;5018576;28;20136;-76
2021/07/25 06:38:13;;;;;;;58.38;47.05;;;;;;;23.15;59.87;100804.81;5035066;28;20040;-77
2021/07/25 06:40:41;;;;;;;52.45;45.95;;;;;;;23.19;61.20;100803.78;5051443;28;20510;-78
2021/07/25 06:43:07;;;;;;;53.35;45.35;;;;;;;23.15;59.77;100818.78;5051667;28;20099;-79
2021/07/25 06:45:34;;;;;;;49.67;43.90;;;;;;;24.10;56.52;100803.22;5035113;28;20025;-78
2021/07/25 06:47:59;;;;;;;51.50;41.72;;;;;;;24.18;59.89;100809.06;5051533;28;20025;-77
2021/07/25 06:50:29;;;;;;;48.13;39.42;;;;;;;23.68;62.40;100809.13;5018897;28;20040;-80
2021/07/25 06:52:57;;;;;;;48.30;37.78;;;;;;;23.47;63.18;100810.72;5038670;28;20029;-78
2021/07/25 06:55:27;;;;;;;44.72;37.15;;;;;;;23.67;62.81;100804.75;5054922;28;20040;-78
2021/07/25 06:57:52;;;;;;;46.95;38.17;;;;;;;23.41;63.60;100809.19;5054939;28;20040;-78
2021/07/25 07:00:18;;;;;;;47.03;37.60;;;;;;;23.29;64.31;100805.19;5056227;28;20025;-78
2021/07/25 07:02:54;;;;;;;42.80;36.53;;;;;;;23.24;64.04;100806.28;5056120;28;20060;-78
2021/07/25 07:05:22;;;;;;;47.33;36.90;;;;;;;23.37;63.80;100802.31;5056584;28;20025;-79
2021/07/25 07:07:50;;;;;;;41.20;35.22;;;;;;;23.31;64.02;100803.38;5056105;28;20122;-79
2021/07/25 07:10:18;;;;;;;41.10;35.25;;;;;;;23.36;63.81;100806.69;5054559;28;20033;-78
2021/07/25 07:12:45;;;;;;;36.60;32.47;;;;;;;23.27;64.54;100814.03;5055937;28;20048;-78
2021/07/25 07:15:11;;;;;;;40.45;33.55;;;;;;;23.20;64.13;100821.25;5038144;28;20455;-78
2021/07/25 07:17:40;;;;;;;38.80;32.05;;;;;;;23.18;65.04;100818.66;5038785;28;20024;-77
2021/07/25 07:20:07;;;;;;;33.88;29.40;;;;;;;23.17;64.39;100824.00;5055392;28;20407;-78
2021/07/25 07:22:33;;;;;;;32.72;28.23;;;;;;;23.30;63.89;100825.28;5039548;28;20087;-79
2021/07/25 07:24:59;;;;;;;31.33;27.55;;;;;;;23.58;63.21;100819.97;5055487;28;20029;-81
2021/07/25 07:27:25;;;;;;;27.98;24.05;;;;;;;23.45;63.67;100817.78;5022607;28;20033;-80
2021/07/25 07:29:54;;;;;;;27.50;23.13;;;;;;;23.23;64.27;100828.16;5039137;28;20028;-81
2021/07/25 07:32:52;;;;;;;27.48;21.48;;;;;;;23.06;64.24;100826.97;5042212;28;20033;-80
2021/07/25 07:35:27;;;;;;;24.02;20.02;;;;;;;23.03;64.54;100837.56;5043854;28;20033;-81
2021/07/25 07:38:16;;;;;;;23.73;18.77;;;;;;;23.02;63.16;100842.84;5062226;28;20390;-80
2021/07/25 07:40:45;;;;;;;23.13;18.50;;;;;;;22.92;64.49;100850.13;5062789;28;20105;-82
2021/07/25 07:43:18;;;;;;;21.42;16.30;;;;;;;22.88;64.51;100845.88;5057401;28;20060;-81
2021/07/25 07:46:09;;;;;;;22.02;16.20;;;;;;;22.86;64.84;100845.91;5055621;28;20033;-81
2021/07/25 07:48:43;;;;;;;19.45;15.82;;;;;;;22.83;64.58;100858.28;5056537;28;20479;-81
2021/07/25 07:51:08;;;;;;;18.45;15.15;;;;;;;22.82;64.38;100862.69;5038707;28;20048;-80
2021/07/25 07:53:34;;;;;;;18.48;14.95;;;;;;;22.76;64.50;100868.13;5056319;28;20387;-81
2021/07/25 07:55:59;;;;;;;20.50;13.90;;;;;;;22.73;64.83;100863.84;5054594;28;20032;-82
2021/07/25 07:58:31;;;;;;;21.33;14.60;;;;;;;22.74;64.53;100862.06;5038297;28;20036;-81
2021/07/25 08:01:07;;;;;;;18.77;13.48;;;;;;;22.75;64.08;100869.88;5055627;28;20108;-82
2021/07/25 08:06:18;;;;;;;16.88;12.73;;;;;;;22.70;64.65;100865.69;5054321;28;20033;-80
2021/07/25 08:08:44;;;;;;;19.58;13.07;;;;;;;22.72;64.18;100869.13;5037397;28;20058;-79
2021/07/25 08:11:09;;;;;;;15.70;11.73;;;;;;;22.78;64.74;100872.41;5020449;28;20491;-83
2021/07/25 08:13:34;;;;;;;18.50;12.02;;;;;;;22.77;64.30;100873.31;5036934;28;20124;-80
2021/07/25 08:16:00;;;;;;;15.20;11.75;;;;;;;22.75;64.75;100876.88;5020591;28;20135;-79
2021/07/25 08:18:25;;;;;;;15.80;12.05;;;;;;;22.70;64.47;100877.03;5020460;28;20060;-83
2021/07/25 08:20:51;;;;;;;16.52;11.75;;;;;;;22.69;64.36;100877.06;5053821;28;20104;-81
2021/07/25 08:23:16;;;;;;;14.80;11.50;;;;;;;22.69;64.63;100880.56;5020561;28;20033;-81
2021/07/25 08:25:41;;;;;;;15.40;10.27;;;;;;;22.67;64.78;100879.75;5036939;28;20486;-79
2021/07/25 08:28:07;;;;;;;16.90;11.32;;;;;;;22.64;64.54;100885.06;5036733;28;20028;-81
2021/07/25 08:30:32;;;;;;;16.13;11.23;;;;;;;22.57;65.05;100884.41;5053995;28;20083;-84
2021/07/25 08:33:14;;;;;;;15.80;11.90;;;;;;;22.56;65.18;100892.34;5054005;28;20513;-84
2021/07/25 08:35:39;;;;;;;18.92;11.82;;;;;;;22.63;64.28;100893.88;5053664;28;20033;-80
2021/07/25 08:38:05;;;;;;;14.95;10.73;;;;;;;22.73;63.61;100891.81;5055376;28;20050;-79
2021/07/25 08:40:37;;;;;;;13.45;10.18;;;;;;;22.76;63.79;100889.97;5053274;28;20056;-80
2021/07/25 08:43:22;;;;;;;14.23;9.77;;;;;;;22.78;63.81;100888.16;5053246;28;20033;-80
2021/07/25 08:45:55;;;;;;;17.00;9.88;;;;;;;22.80;63.88;100899.47;5054989;28;20060;-79
2021/07/25 08:48:36;;;;;;;11.55;8.90;;;;;;;22.83;63.78;100901.13;5054290;28;20031;-80
2021/07/25 08:51:27;;;;;;;11.07;8.63;;;;;;;22.83;63.81;100901.13;5053004;28;20029;-80
2021/07/25 08:54:01;;;;;;;11.25;8.05;;;;;;;22.84;63.45;100901.97;5053928;28;20488;-79
2021/07/25 08:56:32;;;;;;;11.20;8.10;;;;;;;22.87;63.99;100913.25;5052887;28;20036;-78
2021/07/25 08:59:00;;;;;;;10.52;8.20;;;;;;;22.86;63.23;100900.16;5052953;28;20029;-79
2021/07/25 09:01:40;;;;;;;10.98;8.48;;;;;;;22.92;62.78;100902.63;5052901;28;20033;-79
2021/07/25 09:04:06;;;;;;;10.15;8.02;;;;;;;22.94;63.12;100899.03;5036613;28;20037;-80
2021/07/25 09:06:44;;;;;;;10.02;7.90;;;;;;;22.94;62.91;100900.81;5053981;28;20083;-79
2021/07/25 09:09:17;;;;;;;10.70;7.60;;;;;;;22.95;62.40;100908.63;5054290;28;20039;-79
2021/07/25 09:11:43;;;;;;;;;;;;;;;22.98;60.75;100903.28;5052891;28;20107;-80
2021/07/25 09:14:08;;;;;;;13.15;8.73;;;;;;;23.02;62.24;100904.09;5051936;28;19909;-79
2021/07/25 09:16:35;;;;;;;12.75;8.40;;;;;;;23.10;63.02;100903.84;5035986;28;20037;-79
2021/07/25 09:19:02;;;;;;;11.95;8.63;;;;;;;23.16;63.40;100899.25;5052860;28;20035;-80
2021/07/25 09:21:42;;;;;;;11.48;9.10;;;;;;;23.16;63.14;100907.13;5054185;28;20100;-79
2021/07/25 09:24:26;;;;;;;14.40;8.82;;;;;;;23.14;63.43;100908.06;5053982;28;20032;-84
2021/07/25 09:26:55;;;;;;;11.63;8.93;;;;;;;23.14;63.72;100903.69;5053414;28;20057;-84
2021/07/25 09:29:35;;;;;;;13.98;9.82;;;;;;;23.24;63.51;100895.53;5053772;28;20051;-85
2021/07/25 09:32:17;;;;;;;15.02;9.88;;;;;;;23.36;62.88;100901.22;5053387;28;20494;-85
2021/07/25 09:34:47;;;;;;;14.10;10.13;;;;;;;23.33;64.01;100896.06;5052950;28;20037;-84
2021/07/25 09:37:19;;;;;;;12.90;10.43;;;;;;;23.31;64.28;100889.16;5052570;28;20051;-84
2021/07/25 09:39:47;;;;;;;12.70;10.05;;;;;;;23.31;64.67;100887.38;5052350;28;20053;-84
2021/07/25 09:42:13;;;;;;;13.63;10.98;;;;;;;23.32;64.74;100897.00;5053080;28;20028;-84
2021/07/25 09:45:05;;;;;;;12.55;11.10;;;;;;;23.32;64.99;100898.75;5053025;28;20048;-85
2021/07/25 09:47:41;;;;;;;14.35;11.30;;;;;;;23.31;65.16;100890.00;5036228;28;20049;-84
2021/07/25 09:50:07;;;;;;;11.35;10.15;;;;;;;23.29;65.13;100893.59;5051944;28;20024;-83
2021/07/25 09:52:37;;;;;;;12.50;10.05;;;;;;;23.28;65.37;100891.88;5053691;28;20033;-82
2021/07/25 09:55:05;;;;;;;13.80;10.43;;;;;;;23.28;65.34;100899.75;5052687;28;20475;-78
2021/07/25 09:57:32;;;;;;;13.75;9.95;;;;;;;23.32;65.06;100891.75;5054435;28;20028;-84
2021/07/25 10:00:09;;;;;;;10.45;9.35;;;;;;;23.33;65.23;100895.22;5036153;28;20505;-83
2021/07/25 10:02:43;;;;;;;12.93;9.93;;;;;;;23.33;65.22;100896.06;5053390;28;20021;-84
2021/07/25 10:05:10;;;;;;;12.70;10.25;;;;;;;23.33;65.53;100897.84;5052169;28;20025;-83
2021/07/25 10:07:36;;;;;;;12.00;9.90;;;;;;;23.33;64.98;100888.19;5051891;28;20403;-84
2021/07/25 10:10:02;;;;;;;12.32;9.43;;;;;;;23.31;64.72;100882.13;5018918;28;20475;-84
2021/07/25 10:12:31;;;;;;;11.60;8.95;;;;;;;23.26;64.41;100888.47;5051849;28;20115;-84
2021/07/25 10:15:02;;;;;;;10.93;9.35;;;;;;;23.22;64.56;100884.22;5035674;28;20383;-84
2021/07/25 10:17:32;;;;;;;14.73;9.60;;;;;;;23.17;65.06;100892.25;5052066;28;20391;-84
2021/07/25 10:19:59;;;;;;;12.07;9.27;;;;;;;23.16;65.25;100885.25;5051887;28;20106;-85
2021/07/25 10:22:29;;;;;;;12.80;9.05;;;;;;;23.15;65.63;100887.03;5051727;28;20032;-85
2021/07/25 10:24:57;;;;;;;10.13;8.75;;;;;;;23.16;65.38;100880.00;5051828;28;20498;-85
2021/07/25 10:27:24;;;;;;;11.07;8.90;;;;;;;23.20;64.73;100887.72;5057057;28;20399;-85
2021/07/25 10:29:52;;;;;;;11.75;9.30;;;;;;;23.21;65.26;100883.34;5055736;28;20036;-88
2021/07/25 10:32:19;;;;;;;10.48;8.93;;;;;;;23.24;65.47;100887.66;5055772;28;20116;-83
2021/07/25 10:34:46;;;;;;;9.95;8.38;;;;;;;23.25;64.96;100894.59;5039342;28;20024;-85
2021/07/25 10:37:12;;;;;;;10.50;8.13;;;;;;;23.27;64.45;100882.28;5056630;28;20099;-84
2021/07/25 10:39:43;;;;;;;9.18;7.95;;;;;;;23.33;64.04;100887.34;5055383;28;20045;-83
2021/07/25 10:42:12;;;;;;;7.72;6.93;;;;;;;23.35;62.98;100890.78;5055544;28;20027;-84
2021/07/25 10:44:41;;;;;;;10.90;7.78;;;;;;;23.35;63.17;100889.00;5055558;28;20025;-82
2021/07/25 10:47:23;;;;;;;10.57;7.97;;;;;;;23.35;62.56;100883.75;5055273;28;20037;-79
2021/07/25 10:50:10;;;;;;;8.63;7.33;;;;;;;23.37;62.15;100894.22;5056775;28;20104;-87
2021/07/25 10:52:59;;;;;;;8.55;7.20;;;;;;;23.36;61.84;100889.84;5055457;28;20048;-87
2021/07/25 10:55:34;;;;;;;8.93;7.85;;;;;;;23.34;62.40;100892.56;5056290;28;20546;-86
2021/07/25 10:58:04;;;;;;;12.07;8.45;;;;;;;23.32;62.51;100889.13;5056690;28;20036;-87
2021/07/25 11:00:50;;;;;;;8.25;7.40;;;;;;;23.31;63.08;100895.25;5055913;28;20021;-86
2021/07/25 11:03:24;;;;;;;10.95;9.23;;;;;;;23.30;63.42;100890.06;5055405;28;20029;-86
2021/07/25 11:06:05;;;;;;;11.98;9.25;;;;;;;23.30;63.17;100884.81;5058088;28;20029;-85
2021/07/25 11:08:43;;;;;;;9.80;8.80;;;;;;;23.27;63.59;100888.41;5056579;28;20083;-86
2021/07/25 11:11:34;;;;;;;9.38;8.48;;;;;;;23.27;63.82;100896.28;5056105;28;20451;-85
2021/07/25 11:14:01;;;;;;;9.85;8.70;;;;;;;23.25;64.05;100892.84;5056370;28;20146;-84
2021/07/25 11:16:30;;;;;;;10.80;8.80;;;;;;;23.27;64.19;100892.78;5055046;28;20087;-80
2021/07/25 11:18:56;;;;;;;11.48;9.07;;;;;;;23.28;64.40;100894.50;5054940;28;20028;-85
2021/07/25 11:21:31;;;;;;;11.95;9.23;;;;;;;23.28;63.50;100887.50;5038141;28;20029;-78
2021/07/25 11:23:57;;;;;;;9.90;8.50;;;;;;;23.31;63.94;100886.53;5056175;28;20104;-79